Zion, Virginia
Current Conditions -  °F | °C
As of 9:55 PM on Thursday 27 Nov 2014 (Local Time) from KGVE Reporting Station
Clear Clear  
Wind Chill: 32°   Ceiling: Unl
Heat Index: 32°   Visibility: 10mi
Dew Point: 24°   Wind: 3mph
Humidity: 72%   Direction: 260°W
Pressure: 30.18"   Gusts: NA
Location:  38.0919°N, 78.1851°W
Report Text: KGVE 280255Z AUTO 26003KT 10SM CLR 00/M04 A3018 RMK AO1 P0001 60001 T00011044
Loading
Personal Weather Stations






























Interactive Weather Map New forecast layout! Learn more

10-Day Weather Forecast

Advertisements
Track Severe Weather on mobile